createdAt,value
2022-08-09T00:06:12.111Z,1.80
2022-08-09T00:19:51.250Z,1.90
2022-08-09T00:33:51.872Z,1.80
2022-08-09T00:47:51.300Z,1.90
2022-08-09T01:01:51.778Z,1.80
2022-08-09T01:15:51.935Z,2.00
2022-08-09T01:29:55.045Z,2.00
2022-08-09T01:43:52.504Z,1.80
2022-08-09T01:57:53.038Z,2.10
2022-08-09T02:11:51.719Z,2.00
2022-08-09T02:25:52.934Z,1.90
2022-08-09T02:39:55.156Z,2.00
2022-08-09T02:53:52.840Z,2.10
2022-08-09T03:07:54.787Z,2.20
2022-08-09T03:21:51.706Z,2.10
2022-08-09T03:36:12.163Z,2.10
2022-08-09T03:49:57.822Z,2.30
2022-08-09T04:04:51.740Z,2.00
2022-08-09T04:19:56.093Z,2.10
2022-08-09T04:35:51.729Z,2.20
2022-08-09T04:50:51.718Z,2.30
2022-08-09T05:06:04.270Z,2.20
2022-08-09T05:20:51.752Z,2.30
2022-08-09T05:35:51.737Z,2.10
2022-08-09T05:51:11.906Z,2.10
2022-08-09T06:05:57.929Z,2.20
2022-08-09T06:20:54.482Z,2.20
2022-08-09T06:35:56.623Z,2.10
2022-08-09T06:50:51.772Z,2.10
2022-08-09T07:05:54.022Z,2.00
2022-08-09T07:20:51.767Z,2.00
2022-08-09T07:35:53.278Z,2.00
2022-08-09T07:50:52.877Z,2.00
2022-08-09T08:05:54.573Z,2.00
2022-08-09T08:20:51.790Z,1.80
2022-08-09T08:35:53.245Z,2.00
2022-08-09T08:50:51.919Z,2.00
2022-08-09T09:05:59.398Z,1.90
2022-08-09T09:20:51.844Z,1.80
2022-08-09T09:35:53.091Z,1.90
2022-08-09T09:50:52.656Z,2.00
2022-08-09T10:06:53.965Z,1.80
2022-08-09T10:22:51.971Z,2.00
2022-08-09T10:38:55.117Z,1.90
2022-08-09T10:56:00.450Z,1.75
2022-08-09T11:11:08.695Z,2.10
2022-08-09T11:26:00.246Z,1.80
2022-08-09T11:42:00.203Z,1.70
2022-08-09T11:57:00.346Z,2.00
2022-08-09T12:13:00.431Z,1.70
2022-08-09T12:29:15.720Z,1.80
2022-08-09T12:44:04.585Z,1.90
2022-08-09T12:59:00.646Z,1.70
2022-08-09T13:14:38.394Z,1.60
2022-08-09T13:29:00.788Z,1.60
2022-08-09T13:45:00.838Z,1.70
2022-08-09T14:00:00.893Z,1.60
2022-08-09T14:15:00.907Z,1.60
2022-08-09T14:30:18.818Z,1.60
2022-08-09T14:45:01.306Z,1.70
2022-08-09T15:00:01.101Z,1.70
2022-08-09T15:15:01.058Z,1.70
2022-08-09T15:30:49.121Z,1.70
2022-08-09T15:45:01.190Z,1.50
2022-08-09T16:00:01.198Z,1.50
2022-08-09T16:15:01.230Z,1.40
2022-08-09T16:30:02.333Z,1.50
2022-08-09T16:45:01.262Z,1.50
2022-08-09T17:00:01.301Z,1.40
2022-08-09T17:15:01.325Z,1.50
2022-08-09T17:30:04.987Z,1.60
2022-08-09T17:45:01.472Z,1.40
2022-08-09T18:00:04.903Z,1.40
2022-08-09T18:15:01.445Z,1.40
2022-08-09T18:30:37.544Z,1.30
2022-08-09T18:45:01.577Z,1.30
2022-08-09T19:00:04.042Z,1.40
2022-08-09T19:15:02.608Z,1.30
2022-08-09T19:29:02.402Z,1.30
2022-08-09T19:43:01.888Z,1.40
2022-08-09T19:57:01.969Z,1.20
2022-08-09T20:11:04.297Z,1.40
2022-08-09T20:25:02.063Z,1.40
2022-08-09T20:39:28.629Z,1.40
2022-08-09T20:53:02.060Z,1.30
2022-08-09T21:07:11.120Z,1.30
2022-08-09T21:21:02.125Z,1.20
2022-08-09T21:35:02.227Z,1.40
2022-08-09T21:49:02.192Z,1.30
2022-08-09T22:03:02.417Z,1.40
2022-08-09T22:17:02.284Z,1.40
2022-08-09T22:31:02.260Z,1.30
2022-08-09T22:48:05.261Z,1.40
2022-08-09T22:59:05.629Z,1.40
2022-08-09T23:13:02.279Z,1.30
2022-08-09T23:27:02.283Z,1.30
2022-08-09T23:41:02.344Z,1.30
2022-08-09T23:55:02.478Z,1.40
